Parc national de Yoho, Colombie-Britannique

Conditions des dernières 24 heures

Ce tableau est un sommaire des conditions météo couvrant les dernières 24 heures. Ce sommaire inclut les paramètres suivants: température, humidité, point de rosée, direction et vitesse du vent, pression barométrique, facteur de refroidissement éolien ou indice humidex.
Date / Heure
(HAR)
Conditions Temp (°C) Humidite (%) Point de rose (°C) Vent (km/h) Pression (kPa) Visibilité (km)
23 juillet 2014
7:00 N.D. 10 86 8 SE 3 102,0 N.D.
6:00 N.D. 10 88 8 OSO 15 102,0 N.D.
5:00 N.D. 9 91 8 O 21 102,1 N.D.
4:00 N.D. 9 88 7 OSO 13 102,1 N.D.
3:00 N.D. 10 86 8 OSO 16 102,1 N.D.
2:00 N.D. 10 89 8 SO 9 102,1 N.D.
1:00 N.D. 10 88 8 OSO 12 102,0 N.D.
0:00 N.D. 11 82 8 OSO 9 102,1 N.D.
22 juillet 2014
23:00 N.D. 11 80 7 O 7 102,1 N.D.
22:00 N.D. 11 80 7 OSO 10 102,2 N.D.
21:00 N.D. 12 76 8 O 15 102,2 N.D.
20:00 N.D. 14 62 7 OSO 13 102,3 N.D.
19:00 N.D. 14 65 8 OSO 17 102,3 N.D.
18:00 N.D. 15 61 7 OSO 15 102,3 N.D.
17:00 N.D. 15 60 7 OSO 17 102,3 N.D.
16:00 N.D. 15 62 8 OSO 15 102,3 N.D.
15:00 N.D. 16 54 7 O 17 102,2 N.D.
14:00 N.D. 16 50 6 ONO 10 102,1 N.D.
13:00 N.D. 20   36 5 OSO 18 102,0 N.D.
12:00 N.D. 18 48 7 SO 16 102,0 N.D.
11:00 N.D. 16 57 8 OSO 15 102,0 N.D.
10:00 N.D. 13 67 7 NE 14 102,0 N.D.
9:00 N.D. 10 74 5 ENE 14 102,1 N.D.
8:00 N.D. 6 98 5 E 5 102,2 N.D.
7:00 N.D. 3   99 3 calme 102,2 N.D.
N.D.
non disponible
 ↑ 
température la plus haute
 ↓ 
température la plus basse

Si vous désirez plus de données historiques sur les conditions météo, s.v.p. visitez Données climatologiques en ligne.